Airfield :
LOGIN :

Register | Disclaimer

   EN    FR    IT 

 










Legend :    VFR   Marginal VFR   IFR   Intensive IFR   Very Intensive IFR
Visi :
Ceiling :
>= 8 km
>= 3000ft
5 to 8 km
1000 to 3000 ft
1500m to 5 km
500 to 1000 ft
800 to 1500m
200 to 500 ft
< 800m
< 200 ft
Symbols :   Thunderstorms  Fog  Heavy snow  Heavy precipitations  Wind > 20 kt
SIGMETs :     Misc.  Thunderstorms  Icing  Turbulence  Mountain Waves  Volcanic Ashes






- Airport Elevation : 325 ft
- IATA code : POX


LFPT - Pontoise

CURRENT METAR :
  • 051600Z AUTO 22007KT 160V270 CAVOK 31/04 Q1014

EXPIRED METARs :
  • 051530Z AUTO 21009KT CAVOK 30/03 Q1014
  • 051500Z AUTO 23007KT 180V290 CAVOK 31/04 Q1014
  • 051430Z AUTO 21009KT 150V250 CAVOK 30/03 Q1014
  • 051400Z AUTO 18008KT 120V220 CAVOK 30/04 Q1014
  • 051330Z AUTO 20011G23KT 150V250 CAVOK 30/04 Q1014

TAF N/A
ATIS : +33 1 30 30 52 08



MET'MAP, your aeronautical weather chart ! - Copyright ORBIFLY December 2007 - Disclaimer

ORBIFLY MET'MAP TEAM :

Programming & Development : Alexandra Zaïnal
Concept & original design : Baudouin d'Aumeries
Assistance for programming : Marc-Olivier Méhu
Technical & hardware support : Manuel Goepfert

Contact : metmap@orbifly.com




SOURCES & CREDITS :

   NOAA